This is the latest recevied weather packets stored in our database for station/object N6GPM. If no packets are shown the sender has not sent any weather packets the latest 10 day(s).
| Time | Temp. | Humidity | Pressure | Rain* | Wind** | Luminosity | Snow |
|---|---|---|---|---|---|---|---|
| 1777756717 | 26.11° C | 46% | 1015.6 hPa | 0 mm | - | 672 W/m² | - |
| 1777756412 | 26.11° C | 47% | 1015.8 hPa | 0 mm | - | 584 W/m² | - |
| 1777756110 | 26.11° C | 44% | 1015.7 hPa | 0 mm | - | 617 W/m² | - |
| 1777755504 | 25.56° C | 45% | 1015.8 hPa | 0 mm | - | 592 W/m² | - |
| 1777754292 | 25° C | 50% | 1016.1 hPa | 0 mm | - | 607 W/m² | - |
| 1777750657 | 23.33° C | 58% | 1016.9 hPa | 0 mm | - | 687 W/m² | - |
| 1777750055 | 23.33° C | 56% | 1016.9 hPa | 0 mm | - | 730 W/m² | - |
| 1777749449 | 22.22° C | 62% | 1017 hPa | 0 mm | - | 718 W/m² | - |
| 1777745812 | 20.56° C | 68% | 1017.7 hPa | 0 mm | - | 866 W/m² | - |
| 1777743390 | 20° C | 72% | 1018 hPa | 0 mm | - | 838 W/m² | - |
| 1777742482 | 18.89° C | 76% | 1017.8 hPa | 0 mm | - | 828 W/m² | - |
| 1777740965 | 15.56° C | 92% | 1017.8 hPa | 0 mm | - | 689 W/m² | - |
| 1777740358 | 15° C | 94% | 1018.2 hPa | 0 mm | - | 698 W/m² | - |
| 1777740055 | 14.44° C | 95% | 1018.1 hPa | 0 mm | - | 665 W/m² | - |
| 1777739751 | 14.44° C | 95% | 1018 hPa | 0 mm | - | 582 W/m² | - |
| 1777739448 | 13.89° C | 95% | 1018.1 hPa | 0 mm | - | 468 W/m² | - |
| 1777739144 | 13.89° C | 95% | 1018.3 hPa | 0 mm | - | 523 W/m² | - |
| 1777738842 | 13.33° C | 95% | 1018.2 hPa | 0 mm | - | 377 W/m² | - |
| 1777738538 | 13.89° C | 95% | 1018.4 hPa | 0 mm | - | 265 W/m² | - |
| 1777738236 | 13.33° C | 95% | 1018.3 hPa | 0 mm | - | 213 W/m² | - |
| 1777737934 | 13.89° C | 95% | 1018.3 hPa | 0 mm | - | 205 W/m² | - |
| 1777737331 | 13.33° C | 95% | 1018.6 hPa | 0 mm | - | 205 W/m² | - |
| 1777737027 | 13.33° C | 95% | 1018.5 hPa | 0 mm | - | 183 W/m² | - |
| 1777736722 | 13.33° C | 95% | 1018.5 hPa | 0 mm | - | 201 W/m² | - |
| 1777736084 | 12.78° C | 95% | 1018.4 hPa | 0 mm | - | 162 W/m² | - |
* Rain latest hour (hover to see other rain measurements)
** Current wind speed in m/s (hover to see current wind gust speed)